Time;durP1;ratioP1;P1;durP2;ratioP2;P2;SDS_P1;SDS_P2;PMS_P1;PMS_P2;Temp;Humidity;BMP_temperature;BMP_pressure;BME280_temperature;BME280_humidity;BME280_pressure;Samples;Min_cycle;Max_cycle;Signal;HPM_P1;HPM_P2
2023/12/09 00:03:41;;;;;;;15.90;7.03;;;;;;;5.68;100.00;100511.84;31112733;28;20053;-75
2023/12/09 00:18:43;;;;;;;13.73;6.20;;;;;;;5.78;100.00;100535.41;31029013;28;20058;-76
2023/12/09 00:33:45;;;;;;;10.97;6.13;;;;;;;5.85;100.00;100521.22;31040526;28;20077;-78
2023/12/09 00:48:47;;;;;;;11.83;6.10;;;;;;;5.72;100.00;100524.19;31118800;28;20060;-76
2023/12/09 01:03:50;;;;;;;14.00;5.83;;;;;;;5.88;100.00;100536.63;31003394;28;20053;-76
2023/12/09 01:18:52;;;;;;;12.60;7.30;;;;;;;5.92;100.00;100561.69;31076081;28;20061;-76
2023/12/09 01:33:54;;;;;;;15.57;8.63;;;;;;;5.78;100.00;100560.41;31061282;28;20050;-75
2023/12/09 01:48:57;;;;;;;31.30;12.17;;;;;;;5.62;100.00;100538.38;31008521;28;20082;-77
2023/12/09 02:03:59;;;;;;;28.33;14.20;;;;;;;5.71;100.00;100530.72;31018224;28;20608;-76
2023/12/09 02:19:05;;;;;;;37.83;14.97;;;;;;;5.92;100.00;100542.81;31070047;28;20055;-75
2023/12/09 02:34:08;;;;;;;18.83;8.48;;;;;;;5.90;100.00;100526.28;30999227;28;20145;-75
2023/12/09 02:49:11;;;;;;;13.97;7.03;;;;;;;5.79;100.00;100535.03;31050554;28;20082;-77
2023/12/09 03:04:13;;;;;;;15.10;6.97;;;;;;;5.89;100.00;100522.03;31101185;28;20062;-78
2023/12/09 03:19:15;;;;;;;24.27;8.47;;;;;;;5.81;100.00;100527.34;31115510;28;20062;-75
2023/12/09 03:34:18;;;;;;;26.63;9.17;;;;;;;5.86;100.00;100520.06;31011635;28;20285;-76
2023/12/09 03:49:20;;;;;;;19.93;9.20;;;;;;;5.81;100.00;100529.25;31098391;28;20096;-78
2023/12/09 04:04:22;;;;;;;14.73;6.03;;;;;;;5.74;100.00;100531.91;31104202;28;20053;-77
2023/12/09 04:19:25;;;;;;;12.57;6.10;;;;;;;5.89;100.00;100517.41;31119740;28;20217;-77
2023/12/09 04:34:27;;;;;;;14.17;5.17;;;;;;;5.76;100.00;100525.00;31054985;28;20531;-78
2023/12/09 04:49:29;;;;;;;8.57;5.03;;;;;;;5.79;100.00;100547.72;31058120;28;20077;-76
2023/12/09 05:04:31;;;;;;;11.10;4.90;;;;;;;5.78;100.00;100552.34;31033601;28;20170;-77
2023/12/09 05:19:33;;;;;;;7.00;4.43;;;;;;;5.88;100.00;100585.91;31020748;28;20058;-78
2023/12/09 05:34:35;;;;;;;9.23;5.17;;;;;;;6.02;100.00;100596.03;31120348;28;20144;-78
2023/12/09 05:49:40;;;;;;;8.63;5.13;;;;;;;5.95;100.00;100591.34;31020654;28;20054;-76
2023/12/09 06:04:42;;;;;;;22.97;9.83;;;;;;;5.95;100.00;100590.56;31089097;28;20053;-75
2023/12/09 06:19:44;;;;;;;14.83;8.30;;;;;;;6.02;100.00;100596.78;31128091;28;20049;-76
2023/12/09 06:34:46;;;;;;;11.37;6.87;;;;;;;5.97;100.00;100631.41;31087662;28;20100;-79
2023/12/09 06:49:48;;;;;;;12.90;5.87;;;;;;;5.90;100.00;100625.97;31061999;28;20055;-78
2023/12/09 07:04:51;;;;;;;16.03;5.67;;;;;;;5.90;100.00;100610.59;31014883;28;20058;-77
2023/12/09 07:19:53;;;;;;;28.63;13.23;;;;;;;6.02;100.00;100621.06;31127618;28;20068;-76
2023/12/09 07:34:55;;;;;;;15.93;7.17;;;;;;;5.89;100.00;100605.56;31006493;28;20081;-79
2023/12/09 07:49:58;;;;;;;15.73;8.97;;;;;;;6.14;100.00;100587.63;31094912;28;20403;-77
2023/12/09 08:05:02;;;;;;;47.17;19.30;;;;;;;6.23;100.00;100590.75;31056857;28;20082;-79
2023/12/09 08:20:08;;;;;;;25.80;11.20;;;;;;;6.34;100.00;100558.47;31006346;28;20367;-77
2023/12/09 08:35:11;;;;;;;20.97;9.63;;;;;;;6.26;100.00;100538.78;31031317;28;20053;-79
2023/12/09 08:50:13;;;;;;;16.53;8.40;;;;;;;6.39;100.00;100523.81;31029611;28;20073;-77
2023/12/09 09:05:25;;;;;;;24.50;8.37;;;;;;;6.33;100.00;100503.00;31065077;28;20054;-76
2023/12/09 09:20:28;;;;;;;23.10;10.77;;;;;;;6.34;100.00;100499.16;31040174;28;20052;-78
2023/12/09 09:35:30;;;;;;;16.67;8.00;;;;;;;6.67;100.00;100479.19;31074237;28;20135;-80
2023/12/09 09:50:39;;;;;;;25.57;10.70;;;;;;;6.65;100.00;100468.78;31067323;28;20141;-78
2023/12/09 10:05:41;;;;;;;16.97;9.07;;;;;;;6.61;100.00;100465.34;31111446;28;20113;-78
2023/12/09 10:20:43;;;;;;;13.50;7.87;;;;;;;6.53;100.00;100463.00;31065599;28;20085;-76
2023/12/09 10:35:52;;;;;;;22.27;9.73;;;;;;;6.55;100.00;100460.69;30999851;28;20049;-78
2023/12/09 10:50:54;;;;;;;23.73;8.95;;;;;;;6.46;100.00;100461.81;31092297;28;20065;-78
2023/12/09 11:05:59;;;;;;;20.63;9.60;;;;;;;6.43;100.00;100470.66;31029325;28;20057;-79
2023/12/09 11:21:03;;;;;;;18.50;9.27;;;;;;;6.67;100.00;100468.41;31027262;28;20054;-79
2023/12/09 11:36:06;;;;;;;29.73;12.00;;;;;;;6.69;100.00;100466.09;31074447;28;20054;-77
2023/12/09 11:51:10;;;;;;;29.80;12.63;;;;;;;6.41;100.00;100456.78;31051133;28;20462;-76
2023/12/09 12:06:16;;;;;;;28.97;12.20;;;;;;;6.59;100.00;100453.38;31024050;28;20046;-76
2023/12/09 12:21:18;;;;;;;36.45;14.63;;;;;;;6.59;100.00;100451.47;31027993;28;20267;-78
2023/12/09 12:36:21;;;;;;;22.80;11.03;;;;;;;6.37;100.00;100461.41;31052610;28;20081;-79
2023/12/09 12:51:25;;;;;;;32.07;14.50;;;;;;;6.42;100.00;100458.31;31085879;28;20145;-76
2023/12/09 13:06:27;;;;;;;31.70;14.43;;;;;;;6.22;100.00;100459.81;31082096;28;20050;-76
2023/12/09 13:21:29;;;;;;;25.30;11.70;;;;;;;6.23;100.00;100445.19;31032122;28;20073;-77
2023/12/09 13:36:33;;;;;;;27.33;13.00;;;;;;;6.25;100.00;100442.09;31132314;28;20485;-77
2023/12/09 13:51:36;;;;;;;36.43;14.33;;;;;;;6.25;100.00;100448.25;31115040;28;20054;-75
2023/12/09 14:06:39;;;;;;;41.23;15.80;;;;;;;6.38;100.00;100441.34;31000426;28;20054;-78
2023/12/09 14:21:41;;;;;;;35.37;13.53;;;;;;;6.22;100.00;100438.25;31039533;28;20054;-77
2023/12/09 14:36:43;;;;;;;31.13;11.03;;;;;;;6.16;100.00;100437.81;31056436;28;20058;-76
2023/12/09 14:51:45;;;;;;;53.60;18.77;;;;;;;6.30;100.00;100444.44;31100452;28;20054;-75
2023/12/09 15:06:50;;;;;;;47.13;19.07;;;;;;;6.35;100.00;100447.53;31091789;28;20498;-75
2023/12/09 15:21:52;;;;;;;47.70;19.60;;;;;;;6.11;100.00;100448.22;31048187;28;20149;-74
2023/12/09 15:36:55;;;;;;;40.53;14.77;;;;;;;5.99;100.00;100435.84;31079553;28;20089;-75
2023/12/09 15:51:57;;;;;;;70.10;24.13;;;;;;;6.27;100.00;100429.78;31068305;28;20129;-75
2023/12/09 16:06:59;;;;;;;55.37;21.63;;;;;;;6.31;100.00;100427.88;31011339;28;20092;-76
2023/12/09 16:22:01;;;;;;;36.50;15.00;;;;;;;6.18;100.00;100418.59;31071876;28;20045;-75
2023/12/09 16:37:04;;;;;;;43.50;19.83;;;;;;;6.28;100.00;100425.94;31064668;28;20058;-76
2023/12/09 16:52:06;;;;;;;64.43;24.33;;;;;;;6.32;100.00;100421.34;30986181;28;20089;-75
2023/12/09 17:07:08;;;;;;;34.33;15.47;;;;;;;6.15;100.00;100422.03;31115493;28;20096;-82
2023/12/09 17:22:10;;;;;;;63.40;21.83;;;;;;;6.11;100.00;100421.28;31098071;28;20057;-85
2023/12/09 17:37:12;;;;;;;42.70;17.33;;;;;;;6.33;100.00;100422.88;31060512;28;20065;-84
2023/12/09 17:52:14;;;;;;;30.30;13.90;;;;;;;6.24;100.00;100433.25;31075434;28;20060;-84
2023/12/09 18:07:16;;;;;;;34.43;12.50;;;;;;;6.21;100.00;100436.69;31104409;28;20038;-88
2023/12/09 18:22:20;;;;;;;16.60;7.33;;;;;;;6.23;100.00;100409.34;31131394;28;20053;-81
2023/12/09 18:37:23;;;;;;;34.97;14.23;;;;;;;6.09;100.00;100412.78;31120653;28;20053;-82
2023/12/09 18:52:25;;;;;;;27.87;11.50;;;;;;;6.26;100.00;100398.59;31075136;28;20074;-83
2023/12/09 19:07:27;;;;;;;31.03;12.50;;;;;;;6.55;100.00;100402.13;31055506;28;20050;-84
2023/12/09 19:22:29;;;;;;;71.43;29.53;;;;;;;6.37;100.00;100402.09;31115676;28;20062;-83
2023/12/09 19:37:32;;;;;;;39.10;15.10;;;;;;;6.32;100.00;100399.75;31069520;28;20409;-82
2023/12/09 19:52:34;;;;;;;23.43;11.37;;;;;;;6.45;100.00;100392.84;31020769;28;20077;-82
2023/12/09 20:07:36;;;;;;;39.90;14.50;;;;;;;6.34;100.00;100378.59;31048253;28;20141;-83
2023/12/09 20:22:38;;;;;;;48.10;17.33;;;;;;;6.37;100.00;100379.75;31113308;28;20140;-85
2023/12/09 20:37:40;;;;;;;60.13;19.00;;;;;;;6.53;100.00;100382.84;31127434;28;20062;-83
2023/12/09 20:52:43;;;;;;;73.33;22.20;;;;;;;6.37;100.00;100364.34;31054321;28;20484;-75
2023/12/09 21:07:45;;;;;;;73.77;22.73;;;;;;;6.30;100.00;100364.31;31030385;28;20133;-76
2023/12/09 21:22:47;;;;;;;59.00;21.83;;;;;;;6.50;100.00;100357.41;31008266;28;20528;-74
2023/12/09 21:37:49;;;;;;;60.90;20.93;;;;;;;6.56;100.00;100338.16;31009421;28;20054;-74
2023/12/09 21:52:51;;;;;;;71.73;21.23;;;;;;;6.43;100.00;100330.44;31092382;28;20050;-86
2023/12/09 22:07:53;;;;;;;71.33;22.37;;;;;;;6.18;100.00;100329.63;31135525;28;20061;-83
2023/12/09 22:22:55;;;;;;;67.90;21.40;;;;;;;6.33;100.00;100315.03;31102027;28;20072;-82
2023/12/09 22:37:58;;;;;;;46.90;17.07;;;;;;;6.46;100.00;100291.91;31065711;28;20054;-80
2023/12/09 22:53:00;;;;;;;44.53;16.10;;;;;;;6.34;100.00;100308.47;31084203;28;20074;-80
2023/12/09 23:08:03;;;;;;;43.30;18.77;;;;;;;6.49;100.00;100312.72;31128678;28;20081;-80
2023/12/09 23:23:05;;;;;;;44.97;14.13;;;;;;;6.28;100.00;100328.88;31032818;28;20057;-80
2023/12/09 23:38:11;;;;;;;33.13;14.67;;;;;;;6.30;100.00;100344.69;31142707;28;20053;-81
2023/12/09 23:53:16;;;;;;;37.30;14.47;;;;;;;6.23;100.00;100342.72;31066817;28;20222;-79
